Flight Track Log - Related Links

Times and Time Zones

All times are in EDT time to prevent confusion due to time zone crossing. See the SKW5652 flight status page for this flight to view local times or setup timezone preferences in your user account.

Time Position Orientation Groundspeed Altitude Reporting Facility
EDT Latitude Longitude Course Direction KTS MPH feet Rate Location/Type
Sun 01:50:58 PM 37.6500 -122.3658 133° Southeast 152 175 31,000  Level Oakland Center
Sun 01:52:00 PM 37.6783 -122.4044 313° West 222 255 4,200 -18,951 Descending Oakland Center
Sun 01:52:20 PM 37.6667 -122.4167 220° Southwest 238 274 5,100 2,459 Climbing Northern Cal TRACON
Sun 01:53:01 PM 37.6183 -122.4367 198° South 240 276 6,700 2,294 Climbing Oakland Center
Sun 01:54:00 PM 37.3240 -122.1954 136° Southeast  Level FlightAware Approximate
Sun 01:54:02 PM 37.5369 -122.4556 190° South 293 337 9,000  Level Oakland Center
Sun 01:55:00 PM 37.2326 -122.0602 133° Southeast  Level FlightAware Approximate
Sun 01:55:04 PM 37.4542 -122.4086 156° South 323 372 11,500  Level Oakland Center
Sun 01:56:00 PM 37.1355 -121.9306 133° Southeast  Level FlightAware Approximate
Sun 01:56:05 PM 37.3833 -122.3328 140° Southeast 347 399 13,800  Level Oakland Center
Sun 01:57:07 PM 37.3267 -122.2383 127° Southeast 344 396 16,300 2,195 Climbing Oakland Center
Sun 01:58:08 PM 37.2667 -122.1386 127° Southeast 356 410 18,300 1,854 Climbing Oakland Center
Sun 01:59:10 PM 37.2031 -122.0331 127° Southeast 377 434 20,100 2,000 Climbing Oakland Center
Sun 02:00:11 PM 37.1225 -121.9011 127° Southeast 395 455 22,400 1,951 Climbing Oakland Center
Sun 02:01:13 PM 37.0528 -121.7900 128° Southeast 405 466 24,100 1,610 Climbing Oakland Center
Sun 02:02:14 PM 36.9803 -121.6733 128° Southeast 420 483 25,700 1,561 Climbing Oakland Center
Sun 02:03:16 PM 36.9078 -121.5539 127° Southeast 430 495 27,300 1,512 Climbing Oakland Center
Sun 02:04:17 PM 36.8339 -121.4319 127° Southeast 438 504 28,800 1,415 Climbing Oakland Center
Sun 02:05:19 PM 36.7497 -121.2986 128° Southeast 449 517 30,200 1,073 Climbing Oakland Center
Sun 02:06:20 PM 36.6722 -121.1714 127° Southeast 457 526 31,000 390 Climbing Oakland Center
Sun 02:07:22 PM 36.5919 -121.0425 128° Southeast 467 537 31,000  Level Oakland Center
Sun 02:08:24 PM 36.5114 -120.9156 128° Southeast 468 539 31,000  Level Oakland Center
Sun 02:09:25 PM 36.4306 -120.7875 128° Southeast 470 541 31,000  Level Oakland Center
Sun 02:10:27 PM 36.3483 -120.6589 128° Southeast 472 543 31,000  Level Oakland Center
Sun 02:11:28 PM 36.2672 -120.5306 128° Southeast 472 543 31,000  Level Oakland Center
Sun 02:12:30 PM 36.1664 -120.3739 129° Southeast 484 557 31,000  Level Oakland Center
Sun 02:13:32 PM 36.0842 -120.2458 128° Southeast 475 547 31,000  Level Oakland Center
Sun 02:14:33 PM 36.0031 -120.1206 129° Southeast 464 534 31,000  Level Oakland Center
Sun 02:15:35 PM 35.9189 -119.9931 129° Southeast 470 541 31,000  Level Oakland Center
Sun 02:16:37 PM 35.8358 -119.8631 128° Southeast 477 549 31,000  Level Oakland Center
Sun 02:17:38 PM 35.7522 -119.7364 129° Southeast 474 545 31,000  Level Oakland Center
Sun 02:18:40 PM 35.6681 -119.6075 129° Southeast 478 550 31,000  Level Oakland Center
Sun 02:19:42 PM 35.5858 -119.4839 129° Southeast 469 540 31,000  Level Oakland Center
Sun 02:20:44 PM 35.4881 -119.3356 129° Southeast 464 534 31,000  Level Oakland Center
Sun 02:21:02 PM 35.4733 -119.3114 127° Southeast 466 536 31,000  Level Los Angeles Center
Sun 02:22:16 PM 35.3931 -119.1889 129° Southeast 463 533 31,000  Level Los Angeles Center
Sun 02:23:18 PM 35.2958 -119.0425 129° Southeast 461 531 31,000 -242 Level Los Angeles Center
Sun 02:24:20 PM 35.1997 -118.8975 129° Southeast 457 526 30,500 -726 Descending Los Angeles Center
Sun 02:25:22 PM 35.1158 -118.7764 130° Southeast 463 533 29,500 -919 Descending Los Angeles Center
Sun 02:26:24 PM 35.0528 -118.6817 129° Southeast 455 524 28,600 -1,059 Descending Los Angeles Center
Sun 02:27:38 PM 34.9583 -118.5428 130° Southeast 443 510 27,100 -1,226 Descending Los Angeles Center
Sun 02:28:41 PM 34.8742 -118.4178 129° Southeast 416 479 25,800 -1,200 Descending Los Angeles Center
Sun 02:29:43 PM 34.8031 -118.3150 130° Southeast 402 463 24,600 -1,306 Descending Los Angeles Center
Sun 02:30:45 PM 34.7175 -118.1889 130° Southeast 405 466 23,100 -1,258 Descending Los Angeles Center
Sun 02:31:47 PM 34.6436 -118.0828 130° Southeast 412 474 22,000 -1,016 Descending Los Angeles Center
Sun 02:32:49 PM 34.5850 -117.9667 121° Southeast 407 468 21,000 -919 Descending Los Angeles Center
Sun 02:33:51 PM 34.5347 -117.8539 118° Southeast 387 445 20,100 -816 Descending Los Angeles Center
Sun 02:34:54 PM 34.4747 -117.7228 119° Southeast 373 429 19,300 -720 Descending Los Angeles Center
Sun 02:35:56 PM 34.4247 -117.6147 119° Southeast 371 427 18,600 -629 Descending Los Angeles Center
Sun 02:36:58 PM 34.3781 -117.5122 119° Southeast 371 427 18,000 -629 Descending Los Angeles Center
Sun 02:38:00 PM 34.3317 -117.4081 118° Southeast 358 412 17,300 -435 Descending Los Angeles Center
Sun 02:39:02 PM 34.2722 -117.2817 120° Southeast 360 414 17,100 -97 Descending Los Angeles Center
Sun 02:40:04 PM 34.2250 -117.1783 119° Southeast 355 409 17,100  Level Los Angeles Center
Sun 02:41:06 PM 34.1725 -117.0697 120° Southeast 357 411 17,100 -339 Level Los Angeles Center
Sun 02:42:08 PM 34.1253 -116.9689 119° Southeast 350 403 16,400 -1,065 Descending Los Angeles Center
Sun 02:43:10 PM 34.0864 -116.8844 119° Southeast 353 406 14,900 -1,161 Descending Los Angeles Center
Sun 02:44:12 PM 34.0314 -116.7661 119° Southeast 335 386 14,000 -1,235 Descending Los Angeles Center
Sun 02:45:26 PM 33.9914 -116.6828 120° Southeast 292 336 12,100 -2,058 Descending Los Angeles Center
Sun 02:46:29 PM 33.9381 -116.5700 120° Southeast 277 319 9,300 -2,304 Descending Los Angeles Center
Sun 02:47:31 PM 33.9056 -116.5008 120° Southeast 263 303 7,300 -2,036 Descending Los Angeles Center
Sun 02:49:17 PM 33.8333 -116.4000 131° Southeast 205 236 3,600 -1,976 Descending Southern California TRACON
Sun 02:50:18 PM 33.7833 -116.4167 195° South 184 212 1,800 -1,770 Descending Southern California TRACON

Login

Don't have an account? Register now (free) for customized features, flight alerts, and more!